KBPG/BPG METAR and TAF weather

Enter ICAO airport designator
Station Type Date Time Source
KBPG METAR 2019/06/16 07:15 UTC NOAA

KBPG 160715Z AUTO 19006KT 10SM CLR 22/14 A2986 RMK AO2 T02240137


Station Type Date Time Source
KBPG Decoded METAR 2019/06/16 07:15 UTC NOAA

Big Spring, Big Spring McMahon-Wrinkle Airport, TX, United States (KBPG) 32-12N 101-31W
Jun 16, 2019 - 03:15 AM EDT / 2019.06.16 0715 UTC
Wind: from the S (190 degrees) at 7 MPH (6 KT):0
Visibility: 10 mile(s):0
Sky conditions: clear
Temperature: 72.3 F (22.4 C)
Dew Point: 56.7 F (13.7 C)
Relative Humidity: 57%
Pressure (altimeter): 29.86 in. Hg (1011 hPa)
ob: KBPG 160715Z AUTO 19006KT 10SM CLR 22/14 A2986 RMK AO2 T02240137
cycle: 7

Station Type Date Time Source
KBPG TAF UTC NOAA

Error!

Example: see airport list